Time;durP1;ratioP1;P1;durP2;ratioP2;P2;SDS_P1;SDS_P2;PMS_P1;PMS_P2;Temp;Humidity;BMP_temperature;BMP_pressure;BME280_temperature;BME280_humidity;BME280_pressure;Samples;Min_cycle;Max_cycle;Signal;HPM_P1;HPM_P2
2022/03/12 00:01:05;;;;;;;13.60;9.43;;;;;;;0.62;54.87;101590.34;5068431;28;20047;-23
2022/03/12 00:03:32;;;;;;;16.90;9.75;;;;;;;0.58;54.79;101596.22;5084423;28;20032;-23
2022/03/12 00:06:00;;;;;;;15.23;10.13;;;;;;;0.55;54.43;101591.78;5068418;28;20025;-24
2022/03/12 00:08:40;;;;;;;14.05;9.80;;;;;;;0.51;54.75;101593.34;5101630;27;20020;-24
2022/03/12 00:11:05;;;;;;;13.00;9.30;;;;;;;0.46;55.02;101593.94;5068409;28;20016;-22
2022/03/12 00:13:31;;;;;;;14.60;9.88;;;;;;;0.43;55.07;101591.22;5068635;28;20024;-24
2022/03/12 00:15:59;;;;;;;13.65;9.95;;;;;;;0.38;55.09;101584.09;5069397;28;20099;-25
2022/03/12 00:18:25;;;;;;;14.38;10.25;;;;;;;0.34;55.22;101582.16;5066885;28;20501;-24
2022/03/12 00:20:50;;;;;;;17.05;10.20;;;;;;;0.32;54.91;101577.72;5068623;28;20021;-24
2022/03/12 00:23:21;;;;;;;14.85;9.88;;;;;;;0.27;54.69;101580.09;5068387;28;20120;-24
2022/03/12 00:25:48;;;;;;;16.52;10.05;;;;;;;0.23;54.84;101575.56;5067763;28;20016;-24
2022/03/12 00:28:17;;;;;;;13.65;10.57;;;;;;;0.19;55.16;101577.13;5068092;28;20027;-24
2022/03/12 00:30:45;;;;;;;17.73;10.57;;;;;;;0.17;54.69;101577.88;5067076;28;20047;-25
2022/03/12 00:33:11;;;;;;;12.48;9.90;;;;;;;0.12;55.15;101581.16;5068355;28;20379;-24
2022/03/12 00:35:37;;;;;;;13.70;9.35;;;;;;;0.09;54.80;101578.41;5067019;28;20031;-24
2022/03/12 00:38:03;;;;;;;15.30;10.23;;;;;;;0.06;55.41;101570.47;5068896;28;20017;-24
2022/03/12 00:40:29;;;;;;;14.40;10.57;;;;;;;0.02;54.76;101578.00;5068757;28;20043;-25
2022/03/12 00:42:54;;;;;;;16.17;10.50;;;;;;;-0.03;54.85;101570.88;5067011;28;20044;-25
2022/03/12 00:45:20;;;;;;;13.02;9.57;;;;;;;-0.06;54.68;101569.88;5066530;28;20039;-25
2022/03/12 00:47:48;;;;;;;14.82;9.85;;;;;;;-0.09;55.35;101564.53;5068884;28;20108;-25
2022/03/12 00:50:13;;;;;;;13.13;9.88;;;;;;;-0.13;55.09;101569.56;5065422;28;20106;-25
2022/03/12 00:52:38;;;;;;;17.48;9.52;;;;;;;-0.16;54.99;101564.22;5067947;28;20082;-24
2022/03/12 00:55:04;;;;;;;13.43;9.10;;;;;;;-0.20;54.98;101554.50;5067894;28;20024;-24
2022/03/12 00:57:30;;;;;;;13.15;8.75;;;;;;;-0.22;55.42;101558.75;5067901;28;20024;-24
2022/03/12 00:59:55;;;;;;;13.60;9.18;;;;;;;-0.25;55.08;101558.59;5066282;28;20024;-24
2022/03/12 01:02:20;;;;;;;12.13;8.43;;;;;;;-0.28;55.13;101558.41;5069146;28;20016;-24
2022/03/12 01:04:46;;;;;;;12.07;8.75;;;;;;;-0.31;54.87;101569.53;5067637;28;20027;-25
2022/03/12 01:07:12;;;;;;;13.13;8.77;;;;;;;-0.33;55.31;101570.28;5066358;28;20021;-24
2022/03/12 01:09:40;;;;;;;12.55;8.93;;;;;;;-0.35;55.04;101566.69;5068053;28;20103;-23
2022/03/12 01:12:07;;;;;;;12.50;8.30;;;;;;;-0.38;55.71;101567.44;5068107;28;20017;-23
2022/03/12 01:14:33;;;;;;;11.60;8.07;;;;;;;-0.41;55.41;101559.50;5067251;28;20025;-23
2022/03/12 01:16:58;;;;;;;11.40;8.55;;;;;;;-0.44;55.17;101552.47;5067702;28;20101;-24
2022/03/12 01:19:24;;;;;;;12.43;8.30;;;;;;;-0.46;55.22;101558.41;5066055;28;20444;-25
2022/03/12 01:21:50;;;;;;;14.00;8.13;;;;;;;-0.46;55.96;101564.50;5068177;28;20035;-25
2022/03/12 01:24:15;;;;;;;10.45;7.82;;;;;;;-0.50;55.69;101566.84;5067507;28;20024;-25
2022/03/12 01:26:41;;;;;;;10.48;7.93;;;;;;;-0.53;56.06;101562.38;5068021;28;20066;-25
2022/03/12 01:29:09;;;;;;;11.77;8.35;;;;;;;-0.55;55.32;101566.59;5067378;28;20017;-22
2022/03/12 01:31:35;;;;;;;11.02;7.82;;;;;;;-0.57;55.36;101579.47;5068104;28;20367;-25
2022/03/12 01:34:01;;;;;;;11.02;8.20;;;;;;;-0.60;55.32;101578.44;5068117;28;20066;-24
2022/03/12 01:36:27;;;;;;;10.65;7.57;;;;;;;-0.65;55.50;101573.91;5067714;28;20028;-24
2022/03/12 01:38:54;;;;;;;9.52;7.88;;;;;;;-0.67;55.39;101575.50;5067497;28;20099;-24
2022/03/12 01:41:28;;;;;;;10.93;7.25;;;;;;;-0.70;55.68;101575.34;5068145;28;20028;-24
2022/03/12 01:43:54;;;;;;;9.65;7.18;;;;;;;-0.71;55.67;101568.41;5067630;28;20028;-24
2022/03/12 01:46:29;;;;;;;11.68;7.10;;;;;;;-0.74;55.96;101563.06;5068615;28;20116;-25
2022/03/12 01:48:55;;;;;;;11.57;7.82;;;;;;;-0.76;56.26;101563.78;5066850;28;20111;-24
2022/03/12 01:51:20;;;;;;;11.25;8.15;;;;;;;-0.79;55.93;101564.53;5067364;28;20024;-24
2022/03/12 01:53:46;;;;;;;12.18;7.22;;;;;;;-0.82;55.78;101554.91;5067994;28;20028;-24
2022/03/12 01:56:11;;;;;;;10.80;7.15;;;;;;;-0.84;56.36;101558.22;5065858;28;20032;-25
2022/03/12 01:58:36;;;;;;;10.98;7.22;;;;;;;-0.85;55.90;101553.84;5067424;28;20029;-24
2022/03/12 02:01:02;;;;;;;10.95;7.68;;;;;;;-0.90;56.25;101551.03;5068273;28;20024;-23
2022/03/12 02:03:29;;;;;;;11.95;8.18;;;;;;;-0.91;55.94;101560.50;5070723;28;20020;-25
2022/03/12 02:05:58;;;;;;;10.60;7.55;;;;;;;-0.93;56.15;101556.03;5071823;28;20403;-23
2022/03/12 02:08:23;;;;;;;11.93;8.05;;;;;;;-0.96;56.27;101556.78;5070021;28;20378;-24
2022/03/12 02:10:50;;;;;;;12.27;8.43;;;;;;;-0.97;56.61;101554.97;5071112;28;20021;-24
2022/03/12 02:13:16;;;;;;;15.23;7.45;;;;;;;-0.98;56.50;101557.47;5070621;28;20009;-24
2022/03/12 02:15:42;;;;;;;11.73;7.97;;;;;;;-1.01;56.28;101558.22;5068325;28;20028;-24
2022/03/12 02:18:07;;;;;;;10.32;7.28;;;;;;;-1.03;55.92;101549.50;5103385;27;20024;-24
2022/03/12 02:20:33;;;;;;;11.48;7.90;;;;;;;-1.06;56.71;101544.16;5070497;28;20035;-24
2022/03/12 02:22:59;;;;;;;12.25;7.45;;;;;;;-1.08;56.81;101546.66;5069221;28;20127;-24
2022/03/12 02:25:30;;;;;;;8.25;7.15;;;;;;;-1.08;56.25;101550.94;5070245;28;20094;-24
2022/03/12 02:27:56;;;;;;;9.88;7.88;;;;;;;-1.12;55.91;101549.88;5070649;28;20071;-24
2022/03/12 02:30:24;;;;;;;10.43;7.32;;;;;;;-1.14;56.26;101558.38;5062559;28;20023;-25
2022/03/12 02:32:58;;;;;;;8.82;7.13;;;;;;;-1.18;56.37;101553.03;5085426;28;20028;-23
2022/03/12 02:35:24;;;;;;;10.95;7.30;;;;;;;-1.19;56.49;101561.63;5070079;28;20032;-24
2022/03/12 02:37:52;;;;;;;11.38;7.45;;;;;;;-1.23;55.91;101566.56;5070524;28;20024;-23
2022/03/12 02:40:18;;;;;;;9.70;7.65;;;;;;;-1.25;56.34;101563.88;5069862;28;20279;-24
2022/03/12 02:42:43;;;;;;;9.93;6.85;;;;;;;-1.27;56.25;101555.13;5068750;28;20127;-24
2022/03/12 02:45:09;;;;;;;8.75;7.28;;;;;;;-1.29;56.50;101556.75;5070820;28;20112;-24
2022/03/12 02:47:42;;;;;;;10.48;7.03;;;;;;;-1.31;56.63;101555.75;5070299;28;20032;-24
2022/03/12 02:50:09;;;;;;;11.13;7.63;;;;;;;-1.34;56.32;101558.19;5069091;28;20016;-24
2022/03/12 02:52:41;;;;;;;10.38;6.22;;;;;;;-1.36;56.71;101560.72;5068764;28;20023;-24
2022/03/12 02:55:19;;;;;;;9.43;6.45;;;;;;;-1.38;56.28;101548.47;5069049;28;20059;-24
2022/03/12 02:57:45;;;;;;;10.63;7.20;;;;;;;-1.43;56.41;101546.53;5070329;28;20035;-24
2022/03/12 03:00:12;;;;;;;9.25;6.45;;;;;;;-1.43;56.25;101548.25;5069750;28;20028;-24
2022/03/12 03:02:41;;;;;;;9.88;7.22;;;;;;;-1.46;56.74;101546.34;5068381;28;20405;-24
2022/03/12 03:05:13;;;;;;;10.02;6.78;;;;;;;-1.48;56.88;101550.59;5068479;28;20035;-24
2022/03/12 03:07:38;;;;;;;8.93;6.53;;;;;;;-1.50;56.46;101553.91;5070023;28;20031;-24
2022/03/12 03:10:05;;;;;;;9.82;6.93;;;;;;;-1.53;56.45;101546.88;5069782;28;20126;-24
2022/03/12 03:12:30;;;;;;;9.98;7.13;;;;;;;-1.57;56.65;101550.09;5069093;28;20032;-24
2022/03/12 03:14:56;;;;;;;10.15;7.50;;;;;;;-1.60;56.50;101543.03;5071061;28;20028;-25
2022/03/12 03:17:22;;;;;;;10.48;6.80;;;;;;;-1.62;56.64;101547.25;5067467;28;20012;-23
2022/03/12 03:19:47;;;;;;;8.23;6.43;;;;;;;-1.63;56.25;101549.75;5069868;28;20030;-23
2022/03/12 03:22:13;;;;;;;10.20;6.60;;;;;;;-1.66;56.58;101549.56;5069028;28;20086;-24
2022/03/12 03:24:39;;;;;;;9.73;6.53;;;;;;;-1.71;56.13;101539.84;5068631;28;20025;-25
2022/03/12 03:27:04;;;;;;;9.93;6.70;;;;;;;-1.71;56.04;101573.50;5069991;28;20103;-23
2022/03/12 03:29:31;;;;;;;9.90;6.53;;;;;;;-1.74;56.12;101551.75;5070424;28;20123;-24
2022/03/12 03:35:39;;;;;;;10.70;6.75;;;;;;;-1.82;56.86;101569.41;5046951;28;20075;-22
2022/03/12 03:41:12;;;;;;;8.13;6.40;;;;;;;-1.91;56.53;101574.09;5016657;23;20165;-22
2022/03/12 03:43:38;;;;;;;10.52;7.35;;;;;;;-1.95;56.37;101573.91;4987899;28;20021;-21
2022/03/12 03:46:03;;;;;;;9.65;6.60;;;;;;;-1.96;56.11;101574.69;4992613;28;20030;-20
2022/03/12 03:48:31;;;;;;;9.73;6.95;;;;;;;-1.99;56.26;101577.13;4995784;28;20026;-20
2022/03/12 03:50:56;;;;;;;8.27;6.55;;;;;;;-2.02;56.90;101569.19;4997768;28;20057;-21
2022/03/12 03:53:24;;;;;;;9.73;7.07;;;;;;;-2.04;56.73;101572.50;4989232;28;20497;-20
2022/03/12 03:55:51;;;;;;;9.38;6.63;;;;;;;-2.07;56.63;101573.19;4998199;28;20030;-20
2022/03/12 03:58:17;;;;;;;9.25;7.00;;;;;;;-2.10;56.41;101580.78;5002712;28;20018;-20
2022/03/12 04:00:59;;;;;;;9.63;7.03;;;;;;;-2.13;56.47;101575.44;4997146;28;20030;-20
2022/03/12 04:03:29;;;;;;;9.00;6.35;;;;;;;-2.16;56.40;101567.50;5002560;28;20033;-21
2022/03/12 04:05:54;;;;;;;10.48;6.53;;;;;;;-2.19;56.44;101579.41;4999113;28;20026;-21
2022/03/12 04:08:21;;;;;;;7.65;5.75;;;;;;;-2.22;56.72;101581.84;5000058;28;20037;-20
2022/03/12 04:10:46;;;;;;;10.20;6.28;;;;;;;-2.24;56.94;101575.69;4994621;28;20247;-20
2022/03/12 04:13:18;;;;;;;8.45;5.88;;;;;;;-2.27;56.90;101570.34;4997482;28;20057;-20
2022/03/12 04:15:44;;;;;;;8.52;6.70;;;;;;;-2.29;56.70;101573.66;4998970;28;20033;-21
2022/03/12 04:18:10;;;;;;;7.32;6.57;;;;;;;-2.32;56.53;101571.78;5000198;28;20018;-22
2022/03/12 04:20:36;;;;;;;8.43;6.32;;;;;;;-2.35;56.55;101569.91;4991045;28;20022;-21
2022/03/12 04:23:01;;;;;;;8.68;6.32;;;;;;;-2.36;56.77;101569.81;4997383;28;20113;-21
2022/03/12 04:25:31;;;;;;;7.85;5.85;;;;;;;-2.40;56.56;101571.31;4994762;28;20066;-20
2022/03/12 04:27:59;;;;;;;8.98;6.05;;;;;;;-2.41;56.62;101581.59;4985697;28;20023;-20
2022/03/12 04:30:25;;;;;;;9.35;6.38;;;;;;;-2.46;56.62;101563.22;4989898;28;20018;-22
2022/03/12 04:32:50;;;;;;;10.35;6.70;;;;;;;-2.48;56.70;101568.31;4990234;28;20034;-20
2022/03/12 04:35:16;;;;;;;9.77;6.47;;;;;;;-2.50;56.75;101575.06;4994158;28;20080;-22
2022/03/12 04:37:42;;;;;;;10.38;6.03;;;;;;;-2.52;56.52;101568.03;4997035;28;20021;-20
2022/03/12 04:40:10;;;;;;;10.18;6.28;;;;;;;-2.54;57.04;101565.34;4998317;28;20469;-20
2022/03/12 04:42:40;;;;;;;10.85;6.53;;;;;;;-2.58;56.64;101568.56;5000115;28;20029;-21
2022/03/12 04:45:09;;;;;;;10.85;6.70;;;;;;;-2.59;56.74;101569.34;5002144;28;20050;-21
2022/03/12 04:47:35;;;;;;;8.75;6.47;;;;;;;-2.63;57.14;101567.41;5001064;28;20029;-20
2022/03/12 04:50:02;;;;;;;10.73;7.07;;;;;;;-2.64;57.03;101578.53;5000956;28;20030;-20
2022/03/12 04:52:29;;;;;;;12.30;8.60;;;;;;;-2.68;57.05;101576.53;4999130;28;20022;-20
2022/03/12 04:54:56;;;;;;;12.23;8.18;;;;;;;-2.71;57.07;101575.56;4994211;28;20026;-20
2022/03/12 04:57:22;;;;;;;17.88;11.27;;;;;;;-2.75;56.85;101581.38;4999814;28;20029;-21
2022/03/12 04:59:47;;;;;;;76.53;36.08;;;;;;;-2.75;56.74;101580.47;4997833;28;20022;-20
2022/03/12 05:02:12;;;;;;;68.30;34.33;;;;;;;-2.79;57.12;101575.91;4997870;28;20062;-20
2022/03/12 05:04:38;;;;;;;60.72;30.30;;;;;;;-2.82;56.99;101574.03;4997852;28;20040;-20
2022/03/12 05:07:09;;;;;;;53.75;28.35;;;;;;;-2.85;56.99;101574.75;4997924;28;20029;-20
2022/03/12 05:09:35;;;;;;;50.92;26.77;;;;;;;-2.87;57.16;101580.63;4996200;28;20077;-20
2022/03/12 05:12:05;;;;;;;52.25;26.92;;;;;;;-2.91;57.20;101579.53;4993996;28;20041;-20
2022/03/12 05:14:36;;;;;;;52.88;27.00;;;;;;;-2.91;56.92;101578.63;4997293;28;20054;-22
2022/03/12 05:17:05;;;;;;;49.85;25.85;;;;;;;-2.94;57.08;101573.31;4997244;28;20030;-20
2022/03/12 05:19:30;;;;;;;45.17;24.52;;;;;;;-2.98;57.16;101573.13;4996899;28;20030;-20
2022/03/12 05:21:55;;;;;;;41.55;22.67;;;;;;;-3.00;56.81;101577.28;5003135;28;20026;-21
2022/03/12 05:24:21;;;;;;;41.25;22.63;;;;;;;-3.02;57.32;101565.97;4998039;28;20029;-20
2022/03/12 05:26:46;;;;;;;35.17;19.50;;;;;;;-3.05;57.11;101576.13;4995536;28;20022;-20
2022/03/12 05:29:12;;;;;;;36.33;20.50;;;;;;;-3.08;57.21;101580.22;5000658;28;20112;-21
2022/03/12 05:31:37;;;;;;;33.42;19.17;;;;;;;-3.11;57.07;101586.97;4994424;28;20152;-20
2022/03/12 05:34:03;;;;;;;32.67;16.83;;;;;;;-3.12;57.58;101579.13;4998239;28;20033;-20
2022/03/12 05:36:28;;;;;;;27.92;15.98;;;;;;;-3.15;57.30;101585.00;4995457;28;20168;-22
2022/03/12 05:38:53;;;;;;;27.55;16.52;;;;;;;-3.17;57.25;101586.56;4994847;28;20101;-23
2022/03/12 05:41:19;;;;;;;32.20;16.27;;;;;;;-3.18;57.05;101589.06;4984158;28;20383;-20
2022/03/12 05:43:46;;;;;;;26.38;16.38;;;;;;;-3.20;57.17;101581.25;4992319;28;20479;-21
2022/03/12 05:46:14;;;;;;;25.08;15.45;;;;;;;-3.22;57.28;101593.16;4991472;28;20018;-20
2022/03/12 05:48:40;;;;;;;25.23;16.63;;;;;;;-3.23;57.32;101587.06;4990516;28;20774;-20
2022/03/12 05:51:08;;;;;;;21.90;13.57;;;;;;;-3.26;57.32;101592.06;4992028;28;20085;-22
2022/03/12 05:53:35;;;;;;;21.83;13.15;;;;;;;-3.26;57.46;101597.25;4993302;28;20025;-20
2022/03/12 05:56:01;;;;;;;20.55;13.00;;;;;;;-3.27;57.30;101603.16;5000783;28;20026;-20
2022/03/12 05:58:27;;;;;;;21.05;12.70;;;;;;;-3.30;57.47;101595.22;4996801;28;20369;-20
2022/03/12 06:00:54;;;;;;;20.00;12.07;;;;;;;-3.31;57.43;101602.91;5001910;28;20125;-20
2022/03/12 06:03:24;;;;;;;20.70;11.35;;;;;;;-3.32;57.42;101594.25;5000887;28;20472;-22
2022/03/12 06:05:55;;;;;;;15.43;9.68;;;;;;;-3.34;57.16;101603.56;5000728;28;20030;-21
2022/03/12 06:08:22;;;;;;;;;;;;;;;-3.35;57.64;101620.78;5004448;28;20029;-20
2022/03/12 06:10:51;;;;;;;17.77;10.07;;;;;;;-3.38;57.70;101622.25;5001218;28;19910;-20
2022/03/12 06:13:17;;;;;;;12.70;9.00;;;;;;;-3.37;57.67;101634.38;5001645;28;20026;-20
2022/03/12 06:15:43;;;;;;;14.20;9.55;;;;;;;-3.39;57.55;101631.69;5005675;28;20033;-20
2022/03/12 06:18:09;;;;;;;17.13;10.82;;;;;;;-3.38;57.49;101627.41;5001896;28;20480;-20
2022/03/12 06:20:37;;;;;;;11.50;8.32;;;;;;;-3.39;57.62;101641.09;5008126;28;20029;-20
2022/03/12 06:23:03;;;;;;;17.33;8.95;;;;;;;-3.40;57.90;101639.34;5003704;28;20030;-20
2022/03/12 06:25:29;;;;;;;12.55;8.98;;;;;;;-3.41;57.72;101637.53;5000718;28;20084;-20
2022/03/12 06:27:54;;;;;;;13.60;8.40;;;;;;;-3.40;57.85;101650.53;4992960;28;20030;-20
2022/03/12 06:30:23;;;;;;;14.63;9.40;;;;;;;-3.40;58.00;101647.06;4993231;28;20036;-21
2022/03/12 06:32:49;;;;;;;13.77;9.32;;;;;;;-3.40;57.75;101653.09;4992272;28;20077;-20
2022/03/12 06:35:15;;;;;;;14.63;8.98;;;;;;;-3.39;57.96;101646.28;4991088;28;20018;-21
2022/03/12 06:37:41;;;;;;;12.88;8.20;;;;;;;-3.39;57.88;101635.94;4993544;28;20069;-20
2022/03/12 06:40:08;;;;;;;12.20;9.13;;;;;;;-3.38;58.10;101648.03;4991334;28;20018;-20
2022/03/12 06:42:35;;;;;;;12.65;8.27;;;;;;;-3.38;57.88;101642.88;4988185;28;20026;-20
2022/03/12 06:45:01;;;;;;;12.93;8.43;;;;;;;-3.36;58.06;101641.31;4994026;28;20551;-23
2022/03/12 06:47:29;;;;;;;10.88;8.10;;;;;;;-3.35;58.13;101643.09;5001105;28;20026;-20
2022/03/12 06:49:58;;;;;;;10.52;7.72;;;;;;;-3.35;58.21;101632.75;5002791;28;20049;-21
2022/03/12 06:52:28;;;;;;;11.18;7.60;;;;;;;-3.34;57.90;101642.28;4998031;28;20101;-21
2022/03/12 06:54:54;;;;;;;11.00;7.70;;;;;;;-3.31;58.24;101644.19;4994531;28;20107;-20
2022/03/12 06:57:20;;;;;;;10.63;7.65;;;;;;;-3.29;57.87;101655.47;5002496;28;20034;-20
2022/03/12 06:59:46;;;;;;;13.05;8.20;;;;;;;-3.28;58.07;101642.69;4995381;28;20033;-20
2022/03/12 07:02:11;;;;;;;13.52;8.32;;;;;;;-3.26;58.41;101643.69;4991439;28;20022;-20
2022/03/12 07:04:37;;;;;;;10.25;6.95;;;;;;;-3.23;58.06;101653.31;4991422;28;20105;-20
2022/03/12 07:07:02;;;;;;;11.80;7.40;;;;;;;-3.20;58.24;101653.50;4991791;28;20388;-20
2022/03/12 07:09:29;;;;;;;10.27;7.43;;;;;;;-3.18;58.08;101651.00;4991775;28;20109;-20
2022/03/12 07:11:58;;;;;;;11.68;7.10;;;;;;;-3.14;58.10;101658.16;4991116;28;20065;-20
2022/03/12 07:14:25;;;;;;;10.32;7.57;;;;;;;-3.11;58.20;101658.31;4992162;28;20026;-22
2022/03/12 07:16:51;;;;;;;10.00;7.30;;;;;;;-3.08;58.31;101657.66;4989849;28;20109;-20
2022/03/12 07:19:16;;;;;;;9.85;6.75;;;;;;;-3.03;58.28;101645.91;4991380;28;20115;-21
2022/03/12 07:21:42;;;;;;;9.32;6.70;;;;;;;-2.99;58.16;101658.22;4990866;28;20460;-21
2022/03/12 07:24:07;;;;;;;7.25;6.10;;;;;;;-2.92;58.49;101664.63;4990850;28;20030;-20
2022/03/12 07:26:33;;;;;;;8.98;6.32;;;;;;;-2.87;58.29;101663.25;4991908;28;20118;-20
2022/03/12 07:28:59;;;;;;;9.45;6.45;;;;;;;-2.82;58.61;101661.84;4988407;28;20064;-21
2022/03/12 07:31:25;;;;;;;10.25;6.45;;;;;;;-2.77;58.22;101665.59;4987989;28;20105;-20
2022/03/12 07:33:50;;;;;;;10.05;6.43;;;;;;;-2.71;58.20;101672.81;4991539;28;20105;-23
2022/03/12 07:36:16;;;;;;;9.85;6.45;;;;;;;-2.65;58.26;101669.72;4990989;28;20030;-20
2022/03/12 07:38:41;;;;;;;8.65;6.55;;;;;;;-2.58;58.57;101682.22;4990960;28;20088;-20
2022/03/12 07:41:07;;;;;;;9.40;6.13;;;;;;;-2.54;58.73;101671.25;4990831;28;20464;-20
2022/03/12 07:43:32;;;;;;;11.10;6.40;;;;;;;-2.45;58.66;101684.75;4990699;28;20031;-20
2022/03/12 07:45:58;;;;;;;9.00;6.55;;;;;;;-2.37;58.35;101689.50;4988822;28;20026;-20
2022/03/12 07:48:23;;;;;;;8.30;6.13;;;;;;;-2.29;58.69;101680.50;4993844;28;20434;-24
2022/03/12 07:50:49;;;;;;;9.05;6.70;;;;;;;-2.22;58.50;101685.25;4986389;28;20026;-20
2022/03/12 07:53:14;;;;;;;7.13;5.88;;;;;;;-2.12;58.18;101684.09;4990943;28;20305;-20
2022/03/12 07:55:40;;;;;;;8.02;5.70;;;;;;;-2.05;58.01;101690.50;4990555;28;20054;-21
2022/03/12 07:58:06;;;;;;;7.78;6.10;;;;;;;-1.96;58.24;101690.16;4988255;28;20105;-21
2022/03/12 08:00:32;;;;;;;10.00;6.00;;;;;;;-1.89;58.16;101691.41;4990745;28;20138;-25
2022/03/12 08:02:58;;;;;;;7.60;5.90;;;;;;;-1.80;57.69;101697.16;4991577;28;20022;-20
2022/03/12 08:05:25;;;;;;;9.75;6.47;;;;;;;-1.69;58.04;101687.41;4990685;28;20022;-21
2022/03/12 08:07:54;;;;;;;8.65;6.47;;;;;;;-1.59;57.34;101694.00;4989907;28;20026;-20
2022/03/12 08:10:20;;;;;;;7.10;5.72;;;;;;;-1.49;57.01;101698.00;4990453;28;20023;-20
2022/03/12 08:12:46;;;;;;;7.50;5.85;;;;;;;-1.40;56.80;101692.47;4990148;28;20014;-21
2022/03/12 08:15:12;;;;;;;8.75;5.63;;;;;;;-1.29;56.87;101701.72;4989605;28;20014;-20
2022/03/12 08:17:38;;;;;;;10.68;6.63;;;;;;;-1.19;55.96;101696.25;4991621;28;20038;-20
2022/03/12 08:20:07;;;;;;;9.57;5.65;;;;;;;-1.09;56.04;101695.06;4989645;28;20105;-21
2022/03/12 08:22:40;;;;;;;6.70;5.40;;;;;;;-0.98;56.26;101682.69;4988146;28;20030;-20
2022/03/12 08:25:07;;;;;;;7.93;5.97;;;;;;;-0.88;55.61;101678.00;4988737;28;20062;-20
2022/03/12 08:27:34;;;;;;;9.27;5.80;;;;;;;-0.78;55.79;101683.78;4989832;28;20841;-21
2022/03/12 08:29:59;;;;;;;7.72;4.95;;;;;;;-0.69;55.90;101683.38;4987892;28;20393;-20
2022/03/12 08:32:25;;;;;;;7.57;5.55;;;;;;;-0.58;55.26;101693.41;4989322;28;20018;-20
2022/03/12 08:34:50;;;;;;;6.80;6.05;;;;;;;-0.47;55.25;101687.09;4969775;28;20049;-22
2022/03/12 08:37:15;;;;;;;9.13;5.30;;;;;;;-0.34;54.85;101687.75;4989540;28;20026;-20
2022/03/12 08:39:41;;;;;;;7.55;5.43;;;;;;;-0.25;54.62;101683.03;4990348;28;20033;-20
2022/03/12 08:42:07;;;;;;;7.55;5.07;;;;;;;-0.11;53.99;101680.28;4990324;28;20023;-20
2022/03/12 08:44:32;;;;;;;8.40;5.72;;;;;;;-0.02;54.48;101681.63;4987801;28;20030;-20
2022/03/12 08:46:57;;;;;;;8.38;5.13;;;;;;;0.10;53.84;101683.94;4988010;28;20023;-20
2022/03/12 08:49:23;;;;;;;9.30;5.70;;;;;;;0.22;54.21;101693.16;4988508;28;20388;-26
2022/03/12 08:51:49;;;;;;;7.32;5.50;;;;;;;0.31;53.58;101675.47;4989843;28;20014;-21
2022/03/12 08:54:15;;;;;;;9.77;5.70;;;;;;;0.45;53.27;101678.72;4989899;28;20320;-20
2022/03/12 08:56:40;;;;;;;9.88;6.07;;;;;;;0.55;52.40;101680.06;4989381;28;20104;-20
2022/03/12 08:59:07;;;;;;;6.88;5.03;;;;;;;0.66;52.81;101680.56;4988718;28;20396;-21
2022/03/12 09:01:33;;;;;;;8.27;5.72;;;;;;;0.76;52.45;101674.09;4986739;28;20019;-23
2022/03/12 09:03:58;;;;;;;8.50;6.22;;;;;;;0.89;52.50;101680.78;4989047;28;20025;-20
2022/03/12 09:06:27;;;;;;;7.32;5.35;;;;;;;1.00;52.43;101669.16;4987645;28;20079;-21
2022/03/12 09:08:53;;;;;;;8.10;5.50;;;;;;;1.11;51.75;101674.88;4988764;28;20516;-20
2022/03/12 09:11:18;;;;;;;9.35;5.82;;;;;;;1.23;52.08;101673.66;4992824;28;20241;-20
2022/03/12 09:13:45;;;;;;;6.75;5.22;;;;;;;1.35;51.10;101673.31;4992485;28;20023;-22
2022/03/12 09:16:11;;;;;;;7.82;5.40;;;;;;;1.46;51.70;101671.22;4993563;28;20073;-21
2022/03/12 09:18:36;;;;;;;10.15;5.95;;;;;;;1.58;51.72;101673.44;4993350;28;20542;-21
2022/03/12 09:21:02;;;;;;;8.00;5.45;;;;;;;1.67;51.19;101659.13;4991878;28;20033;-21
2022/03/12 09:23:27;;;;;;;7.72;5.25;;;;;;;1.82;52.08;101667.53;4992793;28;21113;-20
2022/03/12 09:25:52;;;;;;;7.40;5.05;;;;;;;1.94;51.98;101656.78;4989672;28;20023;-20
2022/03/12 09:28:19;;;;;;;9.43;5.78;;;;;;;2.06;52.25;101659.88;4992995;28;20030;-21
2022/03/12 09:30:50;;;;;;;7.30;5.38;;;;;;;2.21;52.23;101657.03;4991689;28;20034;-21
2022/03/12 09:33:16;;;;;;;9.02;6.30;;;;;;;2.34;52.44;101654.94;4992214;28;20113;-20
2022/03/12 09:35:42;;;;;;;6.82;5.07;;;;;;;2.45;52.26;101651.06;4991866;28;20053;-20
2022/03/12 09:38:07;;;;;;;6.32;5.25;;;;;;;2.56;52.03;101654.97;4992082;28;20465;-21
2022/03/12 09:40:33;;;;;;;6.50;5.10;;;;;;;2.67;51.37;101647.56;4992240;28;20109;-21
2022/03/12 09:42:59;;;;;;;5.78;4.63;;;;;;;2.81;51.85;101655.91;4993307;28;20026;-20
2022/03/12 09:45:25;;;;;;;6.45;4.93;;;;;;;2.92;50.90;101648.53;4992029;28;20030;-21
2022/03/12 09:47:51;;;;;;;6.07;4.38;;;;;;;3.02;50.67;101644.56;4990375;28;20476;-21
2022/03/12 09:50:17;;;;;;;4.47;4.07;;;;;;;3.17;51.29;101649.44;4992265;28;20022;-21
2022/03/12 09:52:43;;;;;;;6.13;4.65;;;;;;;3.30;51.10;101639.50;4991238;28;20031;-21
2022/03/12 09:55:09;;;;;;;10.00;5.55;;;;;;;3.40;50.59;101644.19;4990831;28;20080;-20
2022/03/12 09:57:34;;;;;;;7.47;4.78;;;;;;;3.51;50.63;101641.97;4991352;28;20105;-21
2022/03/12 10:00:01;;;;;;;5.78;4.60;;;;;;;3.64;50.16;101630.25;4992353;28;20368;-23
2022/03/12 10:02:27;;;;;;;6.95;4.05;;;;;;;3.78;50.52;101635.97;4992645;28;20062;-20
2022/03/12 10:04:53;;;;;;;7.18;5.20;;;;;;;3.89;50.32;101631.09;4991288;28;20018;-20
2022/03/12 10:07:18;;;;;;;5.07;4.45;;;;;;;4.01;50.81;101624.50;4991893;28;20029;-20
2022/03/12 10:09:44;;;;;;;6.18;4.80;;;;;;;4.14;50.66;101624.09;4992593;28;20022;-22
2022/03/12 10:12:10;;;;;;;6.93;4.80;;;;;;;4.24;50.91;101622.66;4990149;28;20098;-20
2022/03/12 10:14:35;;;;;;;6.20;4.65;;;;;;;4.35;49.56;101609.94;4974846;28;20037;-20
2022/03/12 10:17:02;;;;;;;6.07;4.05;;;;;;;4.48;49.66;101601.66;4991990;28;20026;-20
2022/03/12 10:19:29;;;;;;;5.20;4.05;;;;;;;4.59;49.73;101598.47;4989577;28;20037;-20
2022/03/12 10:21:54;;;;;;;6.75;5.10;;;;;;;4.69;49.22;101595.31;4980437;28;20034;-21
2022/03/12 10:24:20;;;;;;;5.55;4.38;;;;;;;4.80;48.98;101579.94;4988555;28;20029;-20
2022/03/12 10:26:46;;;;;;;5.40;4.32;;;;;;;4.92;49.30;101587.25;4992929;28;20023;-20
2022/03/12 10:29:12;;;;;;;5.97;4.57;;;;;;;5.01;48.32;101590.13;4989829;28;20026;-20
2022/03/12 10:31:38;;;;;;;5.85;4.00;;;;;;;5.13;48.79;101591.31;4988841;28;20077;-21
2022/03/12 10:34:22;;;;;;;7.20;4.50;;;;;;;5.28;48.98;101590.88;4992967;28;20429;-22
2022/03/12 10:36:49;;;;;;;6.10;4.55;;;;;;;5.38;49.65;101584.16;4992759;28;20455;-20
2022/03/12 10:39:16;;;;;;;7.47;3.85;;;;;;;5.49;48.96;101579.22;4992686;28;20027;-21
2022/03/12 10:41:41;;;;;;;6.25;4.57;;;;;;;5.60;48.60;101585.63;4991757;28;20077;-21
2022/03/12 10:44:07;;;;;;;5.63;4.35;;;;;;;5.70;49.32;101568.41;4987434;28;20030;-23
2022/03/12 10:46:34;;;;;;;5.60;4.82;;;;;;;5.78;48.41;101566.88;4993117;28;20029;-20
2022/03/12 10:49:02;;;;;;;6.88;4.88;;;;;;;5.90;49.05;101568.03;4993382;28;20073;-21
2022/03/12 10:51:46;;;;;;;5.65;4.75;;;;;;;6.06;49.36;101568.47;4991852;28;20428;-21
2022/03/12 10:54:15;;;;;;;6.55;4.72;;;;;;;6.15;48.95;101566.03;4989559;28;20019;-21
2022/03/12 10:56:47;;;;;;;5.00;4.50;;;;;;;6.22;48.01;101562.72;4988181;28;20407;-20
2022/03/12 10:59:19;;;;;;;6.18;4.53;;;;;;;6.36;48.80;101570.00;4989983;28;20472;-21
2022/03/12 11:01:46;;;;;;;6.20;5.03;;;;;;;6.45;48.58;101569.34;4990362;28;20384;-20
2022/03/12 11:04:26;;;;;;;6.80;4.55;;;;;;;6.55;48.48;101571.31;4991982;28;20544;-21
2022/03/12 11:06:54;;;;;;;6.13;4.47;;;;;;;6.63;48.27;101563.59;5004106;28;20108;-22
2022/03/12 11:09:32;;;;;;;6.40;5.47;;;;;;;6.75;47.99;101556.03;4988455;28;20026;-20
2022/03/12 11:11:59;;;;;;;6.20;4.68;;;;;;;6.85;48.13;101564.06;4990988;28;20038;-21
2022/03/12 11:14:24;;;;;;;6.45;5.07;;;;;;;6.92;48.02;101564.25;4990959;28;20022;-21
2022/03/12 11:16:52;;;;;;;6.80;4.72;;;;;;;7.00;47.70;101563.50;4990355;28;20572;-20
2022/03/12 11:19:37;;;;;;;6.43;4.68;;;;;;;7.09;47.49;101560.16;4990281;28;20085;-20
2022/03/12 11:22:09;;;;;;;5.60;4.97;;;;;;;7.18;47.06;101557.72;4991230;28;20033;-21
2022/03/12 11:24:52;;;;;;;7.55;4.72;;;;;;;7.28;46.95;101559.69;4972803;28;20030;-20
2022/03/12 11:27:35;;;;;;;4.20;3.78;;;;;;;7.34;46.60;101553.66;4993016;28;20022;-21